sensor_id;sensor_type;location;lat;lon;timestamp;temperature;humidity
16404;DHT22;8311;50.158;8.642;2022-11-20T00:02:53;18.70;53.00
16404;DHT22;8311;50.158;8.642;2022-11-20T00:05:46;18.60;52.90
16404;DHT22;8311;50.158;8.642;2022-11-20T00:08:40;18.70;53.00
16404;DHT22;8311;50.158;8.642;2022-11-20T00:11:34;18.70;53.00
16404;DHT22;8311;50.158;8.642;2022-11-20T00:14:26;18.60;52.90
16404;DHT22;8311;50.158;8.642;2022-11-20T00:17:20;18.70;53.00
16404;DHT22;8311;50.158;8.642;2022-11-20T00:20:14;18.60;53.00
16404;DHT22;8311;50.158;8.642;2022-11-20T00:23:07;18.60;52.90
16404;DHT22;8311;50.158;8.642;2022-11-20T00:26:02;18.60;53.00
16404;DHT22;8311;50.158;8.642;2022-11-20T00:28:57;18.70;53.00
16404;DHT22;8311;50.158;8.642;2022-11-20T00:31:50;18.70;53.00
16404;DHT22;8311;50.158;8.642;2022-11-20T00:34:44;18.60;53.00
16404;DHT22;8311;50.158;8.642;2022-11-20T00:37:38;18.60;53.00
16404;DHT22;8311;50.158;8.642;2022-11-20T00:40:31;18.60;53.00
16404;DHT22;8311;50.158;8.642;2022-11-20T00:43:23;18.60;53.00
16404;DHT22;8311;50.158;8.642;2022-11-20T00:46:18;18.60;53.00
16404;DHT22;8311;50.158;8.642;2022-11-20T00:49:12;18.60;53.00
16404;DHT22;8311;50.158;8.642;2022-11-20T00:52:06;18.60;53.00
16404;DHT22;8311;50.158;8.642;2022-11-20T00:55:00;18.60;53.00
16404;DHT22;8311;50.158;8.642;2022-11-20T00:57:54;18.60;53.00
16404;DHT22;8311;50.158;8.642;2022-11-20T01:00:47;18.60;53.00
16404;DHT22;8311;50.158;8.642;2022-11-20T01:03:42;18.60;53.00
16404;DHT22;8311;50.158;8.642;2022-11-20T01:06:37;18.60;53.00
16404;DHT22;8311;50.158;8.642;2022-11-20T01:09:31;18.60;53.00
16404;DHT22;8311;50.158;8.642;2022-11-20T01:12:25;18.60;53.00
16404;DHT22;8311;50.158;8.642;2022-11-20T01:15:18;18.60;53.00
16404;DHT22;8311;50.158;8.642;2022-11-20T01:18:11;18.60;53.00
16404;DHT22;8311;50.158;8.642;2022-11-20T01:21:06;18.60;53.00
16404;DHT22;8311;50.158;8.642;2022-11-20T01:24:00;18.60;53.00
16404;DHT22;8311;50.158;8.642;2022-11-20T01:26:53;18.60;53.00
16404;DHT22;8311;50.158;8.642;2022-11-20T01:29:48;18.60;53.00
16404;DHT22;8311;50.158;8.642;2022-11-20T01:32:42;18.60;53.00
16404;DHT22;8311;50.158;8.642;2022-11-20T01:35:35;18.60;53.00
16404;DHT22;8311;50.158;8.642;2022-11-20T01:38:27;18.60;53.00
16404;DHT22;8311;50.158;8.642;2022-11-20T01:41:21;18.60;53.00
16404;DHT22;8311;50.158;8.642;2022-11-20T01:47:57;18.60;53.00
16404;DHT22;8311;50.158;8.642;2022-11-20T01:50:51;18.60;53.00
16404;DHT22;8311;50.158;8.642;2022-11-20T01:53:45;18.60;53.00
16404;DHT22;8311;50.158;8.642;2022-11-20T01:56:42;18.50;53.00
16404;DHT22;8311;50.158;8.642;2022-11-20T01:59:37;18.50;53.00
16404;DHT22;8311;50.158;8.642;2022-11-20T02:02:33;18.50;53.00
16404;DHT22;8311;50.158;8.642;2022-11-20T02:05:31;18.50;53.00
16404;DHT22;8311;50.158;8.642;2022-11-20T02:08:25;18.50;53.00
16404;DHT22;8311;50.158;8.642;2022-11-20T02:11:17;18.50;53.00
16404;DHT22;8311;50.158;8.642;2022-11-20T02:14:11;18.60;53.00
16404;DHT22;8311;50.158;8.642;2022-11-20T02:17:02;18.50;53.00
16404;DHT22;8311;50.158;8.642;2022-11-20T02:19:56;18.50;53.00
16404;DHT22;8311;50.158;8.642;2022-11-20T02:22:54;18.50;52.90
16404;DHT22;8311;50.158;8.642;2022-11-20T02:25:49;18.50;53.00
16404;DHT22;8311;50.158;8.642;2022-11-20T02:28:42;18.50;53.00
16404;DHT22;8311;50.158;8.642;2022-11-20T02:31:41;18.50;53.00
16404;DHT22;8311;50.158;8.642;2022-11-20T02:34:34;18.50;53.00
16404;DHT22;8311;50.158;8.642;2022-11-20T02:37:33;18.50;53.00
16404;DHT22;8311;50.158;8.642;2022-11-20T02:40:26;18.50;53.00
16404;DHT22;8311;50.158;8.642;2022-11-20T02:43:21;18.50;53.00
16404;DHT22;8311;50.158;8.642;2022-11-20T02:46:15;18.50;53.00
16404;DHT22;8311;50.158;8.642;2022-11-20T02:49:08;18.50;53.00
16404;DHT22;8311;50.158;8.642;2022-11-20T02:52:01;18.50;53.00
16404;DHT22;8311;50.158;8.642;2022-11-20T02:54:54;18.50;53.00
16404;DHT22;8311;50.158;8.642;2022-11-20T02:57:48;18.50;53.00
16404;DHT22;8311;50.158;8.642;2022-11-20T03:00:42;18.50;53.00
16404;DHT22;8311;50.158;8.642;2022-11-20T03:03:36;18.50;53.00
16404;DHT22;8311;50.158;8.642;2022-11-20T03:06:28;18.50;53.00
16404;DHT22;8311;50.158;8.642;2022-11-20T03:09:21;18.50;53.00
16404;DHT22;8311;50.158;8.642;2022-11-20T03:12:15;18.50;53.00
16404;DHT22;8311;50.158;8.642;2022-11-20T03:15:09;18.50;53.00
16404;DHT22;8311;50.158;8.642;2022-11-20T03:18:04;18.50;53.00
16404;DHT22;8311;50.158;8.642;2022-11-20T03:20:57;18.50;53.00
16404;DHT22;8311;50.158;8.642;2022-11-20T03:23:50;18.50;53.00
16404;DHT22;8311;50.158;8.642;2022-11-20T03:26:44;18.50;53.00
16404;DHT22;8311;50.158;8.642;2022-11-20T03:29:37;18.50;53.00
16404;DHT22;8311;50.158;8.642;2022-11-20T03:32:30;18.50;53.00
16404;DHT22;8311;50.158;8.642;2022-11-20T03:35:24;18.50;52.90
16404;DHT22;8311;50.158;8.642;2022-11-20T03:38:17;18.50;52.90
16404;DHT22;8311;50.158;8.642;2022-11-20T03:41:12;18.50;53.00
16404;DHT22;8311;50.158;8.642;2022-11-20T03:44:08;18.50;53.00
16404;DHT22;8311;50.158;8.642;2022-11-20T03:47:01;18.40;52.90
16404;DHT22;8311;50.158;8.642;2022-11-20T03:49:54;18.40;52.90
16404;DHT22;8311;50.158;8.642;2022-11-20T03:52:48;18.40;52.90
16404;DHT22;8311;50.158;8.642;2022-11-20T03:55:42;18.40;52.90
16404;DHT22;8311;50.158;8.642;2022-11-20T03:58:35;18.40;52.90
16404;DHT22;8311;50.158;8.642;2022-11-20T04:01:30;18.40;52.90
16404;DHT22;8311;50.158;8.642;2022-11-20T04:04:24;18.40;52.90
16404;DHT22;8311;50.158;8.642;2022-11-20T04:07:16;18.40;52.90
16404;DHT22;8311;50.158;8.642;2022-11-20T04:10:11;18.40;52.90
16404;DHT22;8311;50.158;8.642;2022-11-20T04:13:05;18.40;52.90
16404;DHT22;8311;50.158;8.642;2022-11-20T04:15:58;18.40;53.10
16404;DHT22;8311;50.158;8.642;2022-11-20T04:18:52;18.40;52.90
16404;DHT22;8311;50.158;8.642;2022-11-20T04:21:46;18.40;52.90
16404;DHT22;8311;50.158;8.642;2022-11-20T04:24:39;18.40;52.90
16404;DHT22;8311;50.158;8.642;2022-11-20T04:27:33;18.40;52.90
16404;DHT22;8311;50.158;8.642;2022-11-20T04:30:26;18.40;52.90
16404;DHT22;8311;50.158;8.642;2022-11-20T04:33:19;18.40;52.90
16404;DHT22;8311;50.158;8.642;2022-11-20T04:36:14;18.40;52.90
16404;DHT22;8311;50.158;8.642;2022-11-20T04:39:12;18.40;52.90
16404;DHT22;8311;50.158;8.642;2022-11-20T04:42:08;18.40;52.90
16404;DHT22;8311;50.158;8.642;2022-11-20T04:45:20;18.40;52.90
16404;DHT22;8311;50.158;8.642;2022-11-20T04:48:14;18.30;52.90
16404;DHT22;8311;50.158;8.642;2022-11-20T04:51:07;18.40;52.90
16404;DHT22;8311;50.158;8.642;2022-11-20T04:54:01;18.30;52.90
16404;DHT22;8311;50.158;8.642;2022-11-20T04:56:54;18.40;52.90
16404;DHT22;8311;50.158;8.642;2022-11-20T04:59:47;18.30;52.90
16404;DHT22;8311;50.158;8.642;2022-11-20T05:02:41;18.30;52.90
16404;DHT22;8311;50.158;8.642;2022-11-20T05:05:35;18.40;52.90
16404;DHT22;8311;50.158;8.642;2022-11-20T05:08:27;18.40;52.90
16404;DHT22;8311;50.158;8.642;2022-11-20T05:11:21;18.40;52.90
16404;DHT22;8311;50.158;8.642;2022-11-20T05:14:15;18.30;52.90
16404;DHT22;8311;50.158;8.642;2022-11-20T05:17:10;18.30;52.90
16404;DHT22;8311;50.158;8.642;2022-11-20T05:20:05;18.30;52.90
16404;DHT22;8311;50.158;8.642;2022-11-20T05:22:57;18.40;52.90
16404;DHT22;8311;50.158;8.642;2022-11-20T05:25:52;18.30;52.90
16404;DHT22;8311;50.158;8.642;2022-11-20T05:28:50;18.30;52.90
16404;DHT22;8311;50.158;8.642;2022-11-20T05:31:44;18.40;52.90
16404;DHT22;8311;50.158;8.642;2022-11-20T05:34:38;18.40;52.90
16404;DHT22;8311;50.158;8.642;2022-11-20T05:37:32;18.30;52.90
16404;DHT22;8311;50.158;8.642;2022-11-20T05:40:24;18.40;52.90
16404;DHT22;8311;50.158;8.642;2022-11-20T05:43:17;18.30;52.90
16404;DHT22;8311;50.158;8.642;2022-11-20T05:46:13;18.30;52.90
16404;DHT22;8311;50.158;8.642;2022-11-20T05:49:07;18.30;52.90
16404;DHT22;8311;50.158;8.642;2022-11-20T05:52:01;18.30;52.90
16404;DHT22;8311;50.158;8.642;2022-11-20T05:54:55;18.30;52.80
16404;DHT22;8311;50.158;8.642;2022-11-20T05:57:49;18.30;52.90
16404;DHT22;8311;50.158;8.642;2022-11-20T06:00:42;18.30;52.90
16404;DHT22;8311;50.158;8.642;2022-11-20T06:03:35;18.30;52.90
16404;DHT22;8311;50.158;8.642;2022-11-20T06:06:28;18.30;52.90
16404;DHT22;8311;50.158;8.642;2022-11-20T06:09:21;18.30;52.90
16404;DHT22;8311;50.158;8.642;2022-11-20T06:12:16;18.30;52.90
16404;DHT22;8311;50.158;8.642;2022-11-20T06:15:09;18.30;52.90
16404;DHT22;8311;50.158;8.642;2022-11-20T06:18:03;18.30;52.90
16404;DHT22;8311;50.158;8.642;2022-11-20T06:21:02;18.30;52.90
16404;DHT22;8311;50.158;8.642;2022-11-20T06:23:55;18.30;52.90
16404;DHT22;8311;50.158;8.642;2022-11-20T06:26:48;18.30;52.90
16404;DHT22;8311;50.158;8.642;2022-11-20T06:29:42;18.30;52.90
16404;DHT22;8311;50.158;8.642;2022-11-20T06:32:35;18.30;52.90
16404;DHT22;8311;50.158;8.642;2022-11-20T06:35:28;18.30;52.90
16404;DHT22;8311;50.158;8.642;2022-11-20T06:38:21;18.20;52.80
16404;DHT22;8311;50.158;8.642;2022-11-20T06:41:21;18.30;52.90
16404;DHT22;8311;50.158;8.642;2022-11-20T06:44:15;18.30;52.90
16404;DHT22;8311;50.158;8.642;2022-11-20T06:47:09;18.30;52.90
16404;DHT22;8311;50.158;8.642;2022-11-20T06:50:04;18.30;52.90
16404;DHT22;8311;50.158;8.642;2022-11-20T06:53:01;18.30;52.90
16404;DHT22;8311;50.158;8.642;2022-11-20T06:55:56;18.20;52.80
16404;DHT22;8311;50.158;8.642;2022-11-20T06:58:49;18.20;52.80
16404;DHT22;8311;50.158;8.642;2022-11-20T07:01:42;18.30;52.90
16404;DHT22;8311;50.158;8.642;2022-11-20T07:04:36;18.30;52.90
16404;DHT22;8311;50.158;8.642;2022-11-20T07:07:29;18.20;52.80
16404;DHT22;8311;50.158;8.642;2022-11-20T07:10:22;18.30;52.90
16404;DHT22;8311;50.158;8.642;2022-11-20T07:13:16;18.20;52.80
16404;DHT22;8311;50.158;8.642;2022-11-20T07:16:09;18.30;52.90
16404;DHT22;8311;50.158;8.642;2022-11-20T07:19:02;18.30;52.90
16404;DHT22;8311;50.158;8.642;2022-11-20T07:21:56;18.30;52.90
16404;DHT22;8311;50.158;8.642;2022-11-20T07:24:49;18.20;52.80
16404;DHT22;8311;50.158;8.642;2022-11-20T07:27:42;18.30;52.90
16404;DHT22;8311;50.158;8.642;2022-11-20T07:30:35;18.20;52.80
16404;DHT22;8311;50.158;8.642;2022-11-20T07:33:28;18.30;52.80
16404;DHT22;8311;50.158;8.642;2022-11-20T07:36:22;18.20;52.80
16404;DHT22;8311;50.158;8.642;2022-11-20T07:39:16;18.20;53.60
16404;DHT22;8311;50.158;8.642;2022-11-20T07:42:10;18.20;52.80
16404;DHT22;8311;50.158;8.642;2022-11-20T07:45:05;18.20;52.80
16404;DHT22;8311;50.158;8.642;2022-11-20T07:47:59;18.20;52.80
16404;DHT22;8311;50.158;8.642;2022-11-20T07:50:53;18.20;52.80
16404;DHT22;8311;50.158;8.642;2022-11-20T07:53:47;18.20;52.80
16404;DHT22;8311;50.158;8.642;2022-11-20T07:56:41;18.20;52.80
16404;DHT22;8311;50.158;8.642;2022-11-20T07:59:34;18.20;52.80
16404;DHT22;8311;50.158;8.642;2022-11-20T08:02:27;18.20;52.80
16404;DHT22;8311;50.158;8.642;2022-11-20T08:05:20;18.20;52.80
16404;DHT22;8311;50.158;8.642;2022-11-20T08:08:14;18.20;52.80
16404;DHT22;8311;50.158;8.642;2022-11-20T08:11:07;18.20;52.80
16404;DHT22;8311;50.158;8.642;2022-11-20T08:14:18;18.20;52.80
16404;DHT22;8311;50.158;8.642;2022-11-20T08:17:11;18.20;52.80
16404;DHT22;8311;50.158;8.642;2022-11-20T08:20:04;18.20;52.80
16404;DHT22;8311;50.158;8.642;2022-11-20T08:22:58;18.20;52.80
16404;DHT22;8311;50.158;8.642;2022-11-20T08:25:52;18.20;52.80
16404;DHT22;8311;50.158;8.642;2022-11-20T08:28:46;18.20;53.40
16404;DHT22;8311;50.158;8.642;2022-11-20T08:31:40;18.20;52.80
16404;DHT22;8311;50.158;8.642;2022-11-20T08:34:33;18.20;52.80
16404;DHT22;8311;50.158;8.642;2022-11-20T08:37:26;18.20;52.80
16404;DHT22;8311;50.158;8.642;2022-11-20T08:40:19;18.20;52.80
16404;DHT22;8311;50.158;8.642;2022-11-20T08:43:12;18.20;52.90
16404;DHT22;8311;50.158;8.642;2022-11-20T08:46:05;18.20;52.90
16404;DHT22;8311;50.158;8.642;2022-11-20T08:48:59;18.20;52.80
16404;DHT22;8311;50.158;8.642;2022-11-20T08:51:53;18.20;52.80
16404;DHT22;8311;50.158;8.642;2022-11-20T08:54:47;18.20;52.80
16404;DHT22;8311;50.158;8.642;2022-11-20T08:57:40;18.20;52.80
16404;DHT22;8311;50.158;8.642;2022-11-20T09:00:40;18.20;52.80
16404;DHT22;8311;50.158;8.642;2022-11-20T09:03:33;18.20;52.80
16404;DHT22;8311;50.158;8.642;2022-11-20T09:06:30;18.20;52.80
16404;DHT22;8311;50.158;8.642;2022-11-20T09:09:23;18.20;52.90
16404;DHT22;8311;50.158;8.642;2022-11-20T09:12:17;18.20;52.80
16404;DHT22;8311;50.158;8.642;2022-11-20T09:15:10;18.20;52.80
16404;DHT22;8311;50.158;8.642;2022-11-20T09:18:04;18.20;52.80
16404;DHT22;8311;50.158;8.642;2022-11-20T09:20:57;18.20;52.80
16404;DHT22;8311;50.158;8.642;2022-11-20T09:23:52;18.10;52.80
16404;DHT22;8311;50.158;8.642;2022-11-20T09:26:46;18.20;52.80
16404;DHT22;8311;50.158;8.642;2022-11-20T09:29:39;18.20;52.80
16404;DHT22;8311;50.158;8.642;2022-11-20T09:32:32;18.20;52.80
16404;DHT22;8311;50.158;8.642;2022-11-20T09:35:25;18.20;52.80
16404;DHT22;8311;50.158;8.642;2022-11-20T09:38:18;18.20;52.80
16404;DHT22;8311;50.158;8.642;2022-11-20T09:41:51;18.20;52.80
16404;DHT22;8311;50.158;8.642;2022-11-20T09:45:08;18.10;52.80
16404;DHT22;8311;50.158;8.642;2022-11-20T09:48:31;18.20;52.80
16404;DHT22;8311;50.158;8.642;2022-11-20T09:51:36;18.20;53.00
16404;DHT22;8311;50.158;8.642;2022-11-20T09:54:36;18.20;52.90
16404;DHT22;8311;50.158;8.642;2022-11-20T09:57:36;18.20;52.90
16404;DHT22;8311;50.158;8.642;2022-11-20T10:00:31;18.30;53.30
16404;DHT22;8311;50.158;8.642;2022-11-20T10:03:35;18.20;53.40
16404;DHT22;8311;50.158;8.642;2022-11-20T10:06:31;18.20;53.60
16404;DHT22;8311;50.158;8.642;2022-11-20T10:09:29;18.30;54.50
16404;DHT22;8311;50.158;8.642;2022-11-20T10:12:30;18.40;55.10
16404;DHT22;8311;50.158;8.642;2022-11-20T10:15:33;18.40;54.80
16404;DHT22;8311;50.158;8.642;2022-11-20T10:18:36;18.40;54.10
16404;DHT22;8311;50.158;8.642;2022-11-20T10:21:39;18.40;53.60
16404;DHT22;8311;50.158;8.642;2022-11-20T10:24:43;18.40;53.50
16404;DHT22;8311;50.158;8.642;2022-11-20T10:27:56;18.40;53.40
16404;DHT22;8311;50.158;8.642;2022-11-20T10:31:00;18.40;53.40
16404;DHT22;8311;50.158;8.642;2022-11-20T10:33:57;18.40;53.40
16404;DHT22;8311;50.158;8.642;2022-11-20T10:37:15;18.30;53.30
16404;DHT22;8311;50.158;8.642;2022-11-20T10:40:20;18.30;53.20
16404;DHT22;8311;50.158;8.642;2022-11-20T10:43:17;18.40;53.20
16404;DHT22;8311;50.158;8.642;2022-11-20T10:46:16;18.30;53.10
16404;DHT22;8311;50.158;8.642;2022-11-20T10:49:13;18.30;53.10
16404;DHT22;8311;50.158;8.642;2022-11-20T10:52:11;18.30;53.10
16404;DHT22;8311;50.158;8.642;2022-11-20T10:55:13;18.30;53.10
16404;DHT22;8311;50.158;8.642;2022-11-20T10:58:16;18.30;53.10
16404;DHT22;8311;50.158;8.642;2022-11-20T11:01:16;18.30;53.00
16404;DHT22;8311;50.158;8.642;2022-11-20T11:04:23;18.30;53.10
16404;DHT22;8311;50.158;8.642;2022-11-20T11:07:20;18.30;53.10
16404;DHT22;8311;50.158;8.642;2022-11-20T11:10:16;18.30;53.10
16404;DHT22;8311;50.158;8.642;2022-11-20T11:13:20;18.30;53.10
16404;DHT22;8311;50.158;8.642;2022-11-20T11:16:21;18.20;53.00
16404;DHT22;8311;50.158;8.642;2022-11-20T11:19:14;18.20;53.00
16404;DHT22;8311;50.158;8.642;2022-11-20T11:22:11;18.20;53.00
16404;DHT22;8311;50.158;8.642;2022-11-20T11:25:09;18.20;53.00
16404;DHT22;8311;50.158;8.642;2022-11-20T11:28:20;18.30;53.10
16404;DHT22;8311;50.158;8.642;2022-11-20T11:31:23;18.20;53.00
16404;DHT22;8311;50.158;8.642;2022-11-20T11:34:17;18.20;53.00
16404;DHT22;8311;50.158;8.642;2022-11-20T11:37:15;18.20;53.00
16404;DHT22;8311;50.158;8.642;2022-11-20T11:40:11;18.20;53.00
16404;DHT22;8311;50.158;8.642;2022-11-20T11:43:19;18.20;53.00
16404;DHT22;8311;50.158;8.642;2022-11-20T11:46:33;18.20;53.70
16404;DHT22;8311;50.158;8.642;2022-11-20T11:49:27;18.20;53.00
16404;DHT22;8311;50.158;8.642;2022-11-20T11:52:21;18.20;53.10
16404;DHT22;8311;50.158;8.642;2022-11-20T11:55:19;18.20;53.10
16404;DHT22;8311;50.158;8.642;2022-11-20T11:58:20;18.20;53.10
16404;DHT22;8311;50.158;8.642;2022-11-20T12:01:29;18.20;53.10
16404;DHT22;8311;50.158;8.642;2022-11-20T12:04:40;18.20;53.00
16404;DHT22;8311;50.158;8.642;2022-11-20T12:07:39;18.20;53.10
16404;DHT22;8311;50.158;8.642;2022-11-20T12:10:43;18.20;53.00
16404;DHT22;8311;50.158;8.642;2022-11-20T12:13:43;18.20;53.00
16404;DHT22;8311;50.158;8.642;2022-11-20T12:16:39;18.20;53.10
16404;DHT22;8311;50.158;8.642;2022-11-20T12:19:34;18.20;53.10
16404;DHT22;8311;50.158;8.642;2022-11-20T12:22:36;18.20;53.10
16404;DHT22;8311;50.158;8.642;2022-11-20T12:25:35;18.20;53.00
16404;DHT22;8311;50.158;8.642;2022-11-20T12:28:40;18.20;53.10
16404;DHT22;8311;50.158;8.642;2022-11-20T12:31:47;18.10;53.00
16404;DHT22;8311;50.158;8.642;2022-11-20T12:34:56;18.20;53.20
16404;DHT22;8311;50.158;8.642;2022-11-20T12:38:03;18.10;53.00
16404;DHT22;8311;50.158;8.642;2022-11-20T12:41:04;18.20;53.10
16404;DHT22;8311;50.158;8.642;2022-11-20T12:44:08;18.20;53.10
16404;DHT22;8311;50.158;8.642;2022-11-20T12:47:27;18.10;53.10
16404;DHT22;8311;50.158;8.642;2022-11-20T12:50:35;18.10;53.00
16404;DHT22;8311;50.158;8.642;2022-11-20T12:54:05;18.10;53.00
16404;DHT22;8311;50.158;8.642;2022-11-20T12:57:04;18.10;53.10
16404;DHT22;8311;50.158;8.642;2022-11-20T13:00:18;18.10;53.00
16404;DHT22;8311;50.158;8.642;2022-11-20T13:03:36;18.10;53.00
16404;DHT22;8311;50.158;8.642;2022-11-20T13:06:32;18.10;53.00
16404;DHT22;8311;50.158;8.642;2022-11-20T13:09:26;18.10;53.00
16404;DHT22;8311;50.158;8.642;2022-11-20T13:12:25;18.10;53.00
16404;DHT22;8311;50.158;8.642;2022-11-20T13:15:31;18.10;53.00
16404;DHT22;8311;50.158;8.642;2022-11-20T13:18:26;18.10;53.00
16404;DHT22;8311;50.158;8.642;2022-11-20T13:21:21;18.10;53.00
16404;DHT22;8311;50.158;8.642;2022-11-20T13:24:26;18.10;53.00
16404;DHT22;8311;50.158;8.642;2022-11-20T13:27:22;18.10;53.00
16404;DHT22;8311;50.158;8.642;2022-11-20T13:30:18;18.10;53.10
16404;DHT22;8311;50.158;8.642;2022-11-20T13:33:23;18.10;53.00
16404;DHT22;8311;50.158;8.642;2022-11-20T13:36:23;18.10;53.00
16404;DHT22;8311;50.158;8.642;2022-11-20T13:39:26;18.10;53.00
16404;DHT22;8311;50.158;8.642;2022-11-20T13:42:25;18.10;53.00
16404;DHT22;8311;50.158;8.642;2022-11-20T13:45:22;18.10;53.00
16404;DHT22;8311;50.158;8.642;2022-11-20T13:48:20;18.10;53.10
16404;DHT22;8311;50.158;8.642;2022-11-20T13:51:27;18.10;53.10
16404;DHT22;8311;50.158;8.642;2022-11-20T13:58:00;18.10;53.10
16404;DHT22;8311;50.158;8.642;2022-11-20T14:01:00;18.10;53.10
16404;DHT22;8311;50.158;8.642;2022-11-20T14:03:54;18.00;53.00
16404;DHT22;8311;50.158;8.642;2022-11-20T14:07:05;18.00;53.00
16404;DHT22;8311;50.158;8.642;2022-11-20T14:10:01;18.10;53.10
16404;DHT22;8311;50.158;8.642;2022-11-20T14:12:54;18.00;53.00
16404;DHT22;8311;50.158;8.642;2022-11-20T14:15:56;18.10;53.10
16404;DHT22;8311;50.158;8.642;2022-11-20T14:18:49;18.00;53.00
16404;DHT22;8311;50.158;8.642;2022-11-20T14:21:42;18.10;53.10
16404;DHT22;8311;50.158;8.642;2022-11-20T14:24:35;18.00;53.00
16404;DHT22;8311;50.158;8.642;2022-11-20T14:27:33;18.10;53.10
16404;DHT22;8311;50.158;8.642;2022-11-20T14:30:28;18.00;53.10
16404;DHT22;8311;50.158;8.642;2022-11-20T14:33:22;18.00;53.10
16404;DHT22;8311;50.158;8.642;2022-11-20T14:36:17;18.10;53.10
16404;DHT22;8311;50.158;8.642;2022-11-20T14:39:12;18.00;53.10
16404;DHT22;8311;50.158;8.642;2022-11-20T14:42:16;18.00;53.10
16404;DHT22;8311;50.158;8.642;2022-11-20T14:45:12;18.00;53.10
16404;DHT22;8311;50.158;8.642;2022-11-20T14:48:09;18.00;53.10
16404;DHT22;8311;50.158;8.642;2022-11-20T14:51:03;18.00;53.10
16404;DHT22;8311;50.158;8.642;2022-11-20T14:53:56;18.00;53.10
16404;DHT22;8311;50.158;8.642;2022-11-20T14:57:02;18.00;53.10
16404;DHT22;8311;50.158;8.642;2022-11-20T15:00:07;18.00;53.10
16404;DHT22;8311;50.158;8.642;2022-11-20T15:03:02;18.00;53.10
16404;DHT22;8311;50.158;8.642;2022-11-20T15:05:55;18.00;53.10
16404;DHT22;8311;50.158;8.642;2022-11-20T15:08:51;18.00;53.10
16404;DHT22;8311;50.158;8.642;2022-11-20T15:11:53;18.00;53.10
16404;DHT22;8311;50.158;8.642;2022-11-20T15:14:46;18.00;53.10
16404;DHT22;8311;50.158;8.642;2022-11-20T15:17:40;18.00;53.10
16404;DHT22;8311;50.158;8.642;2022-11-20T15:20:35;18.00;53.10
16404;DHT22;8311;50.158;8.642;2022-11-20T15:23:29;18.00;53.10
16404;DHT22;8311;50.158;8.642;2022-11-20T15:26:25;18.00;53.10
16404;DHT22;8311;50.158;8.642;2022-11-20T15:29:18;18.00;53.10
16404;DHT22;8311;50.158;8.642;2022-11-20T15:32:12;18.00;53.10
16404;DHT22;8311;50.158;8.642;2022-11-20T15:35:06;18.00;53.10
16404;DHT22;8311;50.158;8.642;2022-11-20T15:38:00;18.00;53.10
16404;DHT22;8311;50.158;8.642;2022-11-20T15:40:54;18.00;53.10
16404;DHT22;8311;50.158;8.642;2022-11-20T15:43:47;18.00;53.10
16404;DHT22;8311;50.158;8.642;2022-11-20T15:46:42;17.90;53.00
16404;DHT22;8311;50.158;8.642;2022-11-20T15:49:37;18.00;53.10
16404;DHT22;8311;50.158;8.642;2022-11-20T15:52:30;18.00;53.10
16404;DHT22;8311;50.158;8.642;2022-11-20T15:55:34;18.00;53.10
16404;DHT22;8311;50.158;8.642;2022-11-20T15:58:27;17.90;53.00
16404;DHT22;8311;50.158;8.642;2022-11-20T16:01:22;18.00;53.10
16404;DHT22;8311;50.158;8.642;2022-11-20T16:04:16;18.00;53.10
16404;DHT22;8311;50.158;8.642;2022-11-20T16:07:09;18.00;53.70
16404;DHT22;8311;50.158;8.642;2022-11-20T16:10:03;18.00;53.10
16404;DHT22;8311;50.158;8.642;2022-11-20T16:12:58;18.00;53.10
16404;DHT22;8311;50.158;8.642;2022-11-20T16:16:14;18.00;53.10
16404;DHT22;8311;50.158;8.642;2022-11-20T16:19:12;17.90;53.00
16404;DHT22;8311;50.158;8.642;2022-11-20T16:22:05;17.90;53.00
16404;DHT22;8311;50.158;8.642;2022-11-20T16:24:59;18.00;53.10
16404;DHT22;8311;50.158;8.642;2022-11-20T16:27:52;17.90;53.00
16404;DHT22;8311;50.158;8.642;2022-11-20T16:30:47;17.90;53.00
16404;DHT22;8311;50.158;8.642;2022-11-20T16:33:40;17.90;53.00
16404;DHT22;8311;50.158;8.642;2022-11-20T16:36:35;17.90;53.00
16404;DHT22;8311;50.158;8.642;2022-11-20T16:39:28;17.90;53.00
16404;DHT22;8311;50.158;8.642;2022-11-20T16:42:22;17.90;53.00
16404;DHT22;8311;50.158;8.642;2022-11-20T16:45:15;17.90;53.00
16404;DHT22;8311;50.158;8.642;2022-11-20T16:48:18;17.90;53.00
16404;DHT22;8311;50.158;8.642;2022-11-20T16:51:12;17.90;53.00
16404;DHT22;8311;50.158;8.642;2022-11-20T16:54:07;17.90;53.00
16404;DHT22;8311;50.158;8.642;2022-11-20T16:57:00;17.90;53.00
16404;DHT22;8311;50.158;8.642;2022-11-20T16:59:53;17.90;53.00
16404;DHT22;8311;50.158;8.642;2022-11-20T17:02:52;17.90;53.00
16404;DHT22;8311;50.158;8.642;2022-11-20T17:05:46;17.90;53.00
16404;DHT22;8311;50.158;8.642;2022-11-20T17:08:39;17.90;53.00
16404;DHT22;8311;50.158;8.642;2022-11-20T17:11:32;17.90;53.00
16404;DHT22;8311;50.158;8.642;2022-11-20T17:14:25;17.90;53.00
16404;DHT22;8311;50.158;8.642;2022-11-20T17:17:18;17.90;53.00
16404;DHT22;8311;50.158;8.642;2022-11-20T17:20:11;17.90;53.00
16404;DHT22;8311;50.158;8.642;2022-11-20T17:23:06;17.90;53.00
16404;DHT22;8311;50.158;8.642;2022-11-20T17:26:01;17.90;53.00
16404;DHT22;8311;50.158;8.642;2022-11-20T17:28:57;17.90;53.00
16404;DHT22;8311;50.158;8.642;2022-11-20T17:31:50;17.90;53.00
16404;DHT22;8311;50.158;8.642;2022-11-20T17:34:44;17.90;53.00
16404;DHT22;8311;50.158;8.642;2022-11-20T17:37:37;17.90;53.00
16404;DHT22;8311;50.158;8.642;2022-11-20T17:40:32;17.90;53.00
16404;DHT22;8311;50.158;8.642;2022-11-20T17:43:25;17.90;53.00
16404;DHT22;8311;50.158;8.642;2022-11-20T17:46:27;17.90;53.00
16404;DHT22;8311;50.158;8.642;2022-11-20T17:49:21;17.90;53.00
16404;DHT22;8311;50.158;8.642;2022-11-20T17:52:14;17.90;53.00
16404;DHT22;8311;50.158;8.642;2022-11-20T17:55:08;17.90;53.00
16404;DHT22;8311;50.158;8.642;2022-11-20T17:58:03;17.90;53.00
16404;DHT22;8311;50.158;8.642;2022-11-20T18:01:03;17.90;53.00
16404;DHT22;8311;50.158;8.642;2022-11-20T18:03:56;17.90;53.00
16404;DHT22;8311;50.158;8.642;2022-11-20T18:06:49;17.90;53.00
16404;DHT22;8311;50.158;8.642;2022-11-20T18:09:43;17.90;53.00
16404;DHT22;8311;50.158;8.642;2022-11-20T18:12:36;17.90;53.00
16404;DHT22;8311;50.158;8.642;2022-11-20T18:15:30;17.90;53.00
16404;DHT22;8311;50.158;8.642;2022-11-20T18:18:23;17.90;53.00
16404;DHT22;8311;50.158;8.642;2022-11-20T18:21:17;17.90;53.00
16404;DHT22;8311;50.158;8.642;2022-11-20T18:24:10;17.90;53.00
16404;DHT22;8311;50.158;8.642;2022-11-20T18:27:04;17.90;53.00
16404;DHT22;8311;50.158;8.642;2022-11-20T18:29:58;17.90;53.00
16404;DHT22;8311;50.158;8.642;2022-11-20T18:32:53;17.80;53.00
16404;DHT22;8311;50.158;8.642;2022-11-20T18:35:46;17.90;53.00
16404;DHT22;8311;50.158;8.642;2022-11-20T18:38:40;17.90;53.00
16404;DHT22;8311;50.158;8.642;2022-11-20T18:41:35;17.90;53.00
16404;DHT22;8311;50.158;8.642;2022-11-20T18:44:45;17.90;53.00
16404;DHT22;8311;50.158;8.642;2022-11-20T18:47:45;17.90;53.00
16404;DHT22;8311;50.158;8.642;2022-11-20T18:50:40;17.90;53.00
16404;DHT22;8311;50.158;8.642;2022-11-20T18:53:34;17.90;53.00
16404;DHT22;8311;50.158;8.642;2022-11-20T18:56:27;17.90;53.00
16404;DHT22;8311;50.158;8.642;2022-11-20T18:59:20;17.90;53.00